Collegedale, Tennessee
Current Conditions -  °F | °C
As of 4:53 PM on Sunday 25 Jan 2015 (Local Time) from KCHA Reporting Station
Overcast Overcast  
Wind Chill: 13°   Ceiling: 10000
Heat Index: 13°   Visibility: 10mi
Dew Point:   Wind: 6mph
Humidity: 42%   Direction: 190°S
Pressure: 29.7"   Gusts: NA
Location:  35.06°N, 85.07°W
Report Text: KCHA 252153Z 19005KT 10SM FEW050 BKN100 BKN120 OVC250 13/01 A2970 RMK AO2 SLP058 T01330006
Loading
Personal Weather Stations






























Interactive Weather Map New forecast layout! Learn more

10-Day Weather Forecast

Advertisements
Track Severe Weather on mobile